TimeCST,TemperatureF,Dew PointF,Humidity,Sea Level PressureIn,VisibilityMPH,Wind Direction,Wind SpeedMPH,Gust SpeedMPH,PrecipitationIn,Events,Conditions,WindDirDegrees,DateUTC
12:15 AM,32.0,30.2,93,30.31,8.0,Calm,Calm,-,N/A,,Clear,0,2013-03-08 06:15:00
12:35 AM,32.0,28.4,87,30.31,9.0,Calm,Calm,-,N/A,,Clear,0,2013-03-08 06:35:00
12:55 AM,32.0,28.4,87,30.31,10.0,Calm,Calm,-,N/A,,Clear,0,2013-03-08 06:55:00
1:15 AM,32.0,28.4,87,30.31,10.0,Calm,Calm,-,N/A,,Clear,0,2013-03-08 07:15:00
1:35 AM,32.0,28.4,87,30.31,9.0,Calm,Calm,-,N/A,,Clear,0,2013-03-08 07:35:00
1:55 AM,32.0,28.4,87,30.31,8.0,Calm,Calm,-,N/A,,Clear,0,2013-03-08 07:55:00
2:15 AM,32.0,28.4,87,30.31,10.0,Calm,Calm,-,N/A,,Clear,0,2013-03-08 08:15:00
2:35 AM,35.6,28.4,75,30.32,10.0,Calm,Calm,-,N/A,,Clear,0,2013-03-08 08:35:00
2:55 AM,32.0,28.4,87,30.31,9.0,ENE,3.5,-,N/A,,Clear,70,2013-03-08 08:55:00
3:15 AM,33.8,28.4,81,30.31,9.0,ENE,4.6,-,N/A,,Clear,70,2013-03-08 09:15:00
3:35 AM,33.8,28.4,81,30.32,8.0,East,4.6,-,N/A,,Clear,90,2013-03-08 09:35:00
3:55 AM,33.8,28.4,81,30.31,9.0,East,4.6,-,N/A,,Clear,80,2013-03-08 09:55:00
4:15 AM,33.8,28.4,81,30.31,8.0,East,6.9,-,N/A,,Clear,80,2013-03-08 10:15:00
4:35 AM,32.0,28.4,87,30.32,8.0,East,5.8,-,N/A,,Clear,80,2013-03-08 10:35:00
4:55 AM,32.0,28.4,87,30.33,8.0,East,5.8,-,N/A,,Clear,80,2013-03-08 10:55:00
5:15 AM,32.0,28.4,87,30.33,7.0,East,4.6,-,N/A,,Clear,90,2013-03-08 11:15:00
5:35 AM,32.0,28.4,87,30.34,8.0,East,3.5,-,N/A,,Clear,90,2013-03-08 11:35:00
5:55 AM,32.0,26.6,80,30.35,8.0,East,3.5,-,N/A,,Clear,90,2013-03-08 11:55:00
6:15 AM,32.0,26.6,80,30.35,5.0,Calm,Calm,-,N/A,,Haze,0,2013-03-08 12:15:00
6:35 AM,32.0,26.6,80,30.36,5.0,Calm,Calm,-,N/A,,Haze,0,2013-03-08 12:35:00
6:55 AM,32.0,26.6,80,30.37,7.0,Calm,Calm,-,N/A,,Clear,0,2013-03-08 12:55:00
7:15 AM,33.8,28.4,81,30.38,7.0,NE,4.6,-,N/A,,Clear,50,2013-03-08 13:15:00
7:35 AM,35.6,28.4,75,30.39,7.0,ENE,4.6,-,N/A,,Clear,70,2013-03-08 13:35:00
7:55 AM,37.4,28.4,70,30.40,7.0,ENE,3.5,-,N/A,,Clear,70,2013-03-08 13:55:00
8:55 AM,44.6,30.2,57,30.37,7.0,East,5.8,-,N/A,,Clear,90,2013-03-08 14:55:00
9:15 AM,44.6,28.4,53,30.37,8.0,ESE,3.5,-,N/A,,Clear,120,2013-03-08 15:15:00
9:35 AM,46.4,28.4,50,30.37,8.0,NE,6.9,-,N/A,,Clear,50,2013-03-08 15:35:00
9:55 AM,48.2,28.4,46,30.37,7.0,East,3.5,-,N/A,,Clear,90,2013-03-08 15:55:00
10:15 AM,50.0,30.2,47,30.36,8.0,East,5.8,-,N/A,,Clear,100,2013-03-08 16:15:00
10:35 AM,53.6,30.2,41,30.37,8.0,ENE,5.8,-,N/A,,Clear,70,2013-03-08 16:35:00
10:55 AM,53.6,28.4,38,30.36,9.0,ENE,4.6,-,N/A,,Clear,70,2013-03-08 16:55:00
11:15 AM,53.6,28.4,38,30.35,9.0,Calm,Calm,-,N/A,,Clear,0,2013-03-08 17:15:00
11:55 AM,57.2,26.6,31,30.34,8.0,East,4.6,-,N/A,,Clear,80,2013-03-08 17:55:00
12:15 PM,57.2,24.8,29,30.32,9.0,East,3.5,-,N/A,,Clear,90,2013-03-08 18:15:00
12:55 PM,60.8,23.0,23,30.29,9.0,ENE,6.9,-,N/A,,Clear,60,2013-03-08 18:55:00
1:15 PM,60.8,23.0,23,30.28,9.0,Calm,Calm,-,N/A,,Clear,0,2013-03-08 19:15:00
1:35 PM,62.6,23.0,22,30.27,9.0,East,5.8,-,N/A,,Clear,80,2013-03-08 19:35:00
1:55 PM,62.6,19.4,19,30.26,10.0,SE,5.8,-,N/A,,Clear,130,2013-03-08 19:55:00
2:15 PM,64.4,17.6,16,30.27,8.0,SSW,3.5,-,N/A,,Clear,200,2013-03-08 20:15:00
2:35 PM,62.6,23.0,22,30.26,2.5,ENE,6.9,-,N/A,,Haze,70,2013-03-08 20:35:00
2:55 PM,62.6,24.8,24,30.27,2.0,East,5.8,-,N/A,,Haze,100,2013-03-08 20:55:00
3:15 PM,62.6,23.0,22,30.27,3.0,East,5.8,-,N/A,,Haze,80,2013-03-08 21:15:00
3:35 PM,62.6,23.0,22,30.25,3.0,ENE,5.8,-,N/A,,Haze,60,2013-03-08 21:35:00
3:55 PM,62.6,23.0,22,30.24,4.0,ENE,6.9,-,N/A,,Haze,70,2013-03-08 21:55:00
4:15 PM,62.6,24.8,24,30.24,3.0,Calm,Calm,-,N/A,,Haze,0,2013-03-08 22:15:00
4:55 PM,59.0,26.6,29,30.25,5.0,ENE,3.5,-,N/A,,Haze,70,2013-03-08 22:55:00
5:15 PM,57.2,28.4,33,30.25,5.0,East,3.5,-,N/A,,Haze,100,2013-03-08 23:15:00
5:35 PM,57.2,24.8,29,30.25,6.0,ESE,3.5,-,N/A,,Haze,120,2013-03-08 23:35:00
5:55 PM,57.2,23.0,27,30.24,6.0,East,4.6,-,N/A,,Haze,100,2013-03-08 23:55:00
6:15 PM,55.4,21.2,26,30.23,8.0,ESE,3.5,-,N/A,,Clear,120,2013-03-09 00:15:00
6:55 PM,55.4,23.0,29,30.23,9.0,Calm,Calm,-,N/A,,Clear,0,2013-03-09 00:55:00
7:15 PM,53.6,24.8,33,30.23,9.0,Calm,Calm,-,N/A,,Clear,0,2013-03-09 01:15:00
7:35 PM,53.6,23.0,30,30.24,10.0,Calm,Calm,-,N/A,,Clear,0,2013-03-09 01:35:00
7:55 PM,53.6,23.0,30,30.24,9.0,Calm,Calm,-,N/A,,Clear,0,2013-03-09 01:55:00
8:15 PM,50.0,26.6,40,30.23,9.0,East,4.6,-,N/A,,Clear,100,2013-03-09 02:15:00
8:35 PM,48.2,28.4,46,30.25,10.0,Calm,Calm,-,N/A,,Clear,0,2013-03-09 02:35:00
8:55 PM,46.4,32.0,57,30.24,9.0,ESE,3.5,-,N/A,,Clear,120,2013-03-09 02:55:00
9:15 PM,46.4,32.0,57,30.24,8.0,Calm,Calm,-,N/A,,Clear,0,2013-03-09 03:15:00
9:35 PM,46.4,30.2,53,30.24,10.0,East,3.5,-,N/A,,Clear,100,2013-03-09 03:35:00
9:55 PM,46.4,28.4,50,30.23,10.0,SE,3.5,-,N/A,,Clear,130,2013-03-09 03:55:00
10:15 PM,48.2,24.8,40,30.23,10.0,Calm,Calm,-,N/A,,Clear,0,2013-03-09 04:15:00
10:35 PM,48.2,26.6,43,30.23,10.0,Calm,Calm,-,N/A,,Clear,0,2013-03-09 04:35:00
10:55 PM,48.2,26.6,43,30.22,10.0,Calm,Calm,-,N/A,,Clear,0,2013-03-09 04:55:00
11:15 PM,50.0,24.8,37,30.21,10.0,SE,3.5,-,N/A,,Clear,130,2013-03-09 05:15:00
11:35 PM,50.0,24.8,37,30.20,10.0,Calm,Calm,-,N/A,,Clear,0,2013-03-09 05:35:00
11:55 PM,50.0,23.0,35,30.20,10.0,Calm,Calm,-,N/A,,Clear,0,2013-03-09 05:55:00